Time;durP1;ratioP1;P1;durP2;ratioP2;P2;SDS_P1;SDS_P2;PMS_P1;PMS_P2;Temp;Humidity;BMP_temperature;BMP_pressure;BME280_temperature;BME280_humidity;BME280_pressure;Samples;Min_cycle;Max_cycle;Signal;HPM_P1;HPM_P2
2022/09/25 00:01:30;;;;;;;2.95;2.75;;;;;;;;;;6342630;27;20011;-81
2022/09/25 00:04:31;;;;;;;5.47;2.38;;;;;;;;;;6353499;27;20109;-81
2022/09/25 00:07:31;;;;;;;2.13;2.03;;;;;;;;;;6351880;27;20257;-81
2022/09/25 00:10:32;;;;;;;1.88;1.77;;;;;;;;;;6344094;27;20059;-81
2022/09/25 00:13:32;;;;;;;2.80;2.55;;;;;;;;;;6362600;27;20026;-81
2022/09/25 00:16:33;;;;;;;1.77;1.70;;;;;;;;;;6346393;27;20016;-81
2022/09/25 00:19:51;;;;;;;2.83;1.83;;;;;;;;;;6358936;27;20046;-81
2022/09/25 00:22:52;;;;;;;3.13;1.95;;;;;;;;;;6345939;27;20535;-81
2022/09/25 00:25:52;;;;;;;2.70;2.53;;;;;;;;;;6332057;27;20024;-81
2022/09/25 00:28:53;;;;;;;3.83;3.53;;;;;;;;;;6356787;27;20023;-81
2022/09/25 00:31:53;;;;;;;1.20;1.20;;;;;;;;;;6359778;27;20023;-82
2022/09/25 00:34:54;;;;;;;2.97;2.83;;;;;;;;;;6362268;27;20019;-81
2022/09/25 00:37:54;;;;;;;1.03;1.03;;;;;;;;;;6337550;27;20015;-81
2022/09/25 00:40:54;;;;;;;2.45;2.28;;;;;;;;;;6358491;27;20254;-81
2022/09/25 00:43:55;;;;;;;2.27;2.17;;;;;;;;;;6347870;27;20024;-81
2022/09/25 00:46:56;;;;;;;1.35;1.35;;;;;;;;;;6332684;27;20420;-81
2022/09/25 00:49:57;;;;;;;4.07;3.77;;;;;;;;;;6355325;27;20476;-81
2022/09/25 00:53:09;;;;;;;1.33;1.33;;;;;;;;;;6340585;27;20019;-81
2022/09/25 00:56:10;;;;;;;7.30;3.35;;;;;;;;;;6339263;27;20012;-81
2022/09/25 00:59:13;;;;;;;3.17;2.60;;;;;;;;;;6330782;27;20023;-81
2022/09/25 01:02:17;;;;;;;7.05;4.03;;;;;;;;;;6352989;27;20662;-81
2022/09/25 01:05:19;;;;;;;1.98;1.88;;;;;;;;;;6355578;27;20102;-81
2022/09/25 01:08:21;;;;;;;8.82;5.20;;;;;;;;;;6346104;27;20172;-81
2022/09/25 01:11:21;;;;;;;3.20;2.95;;;;;;;;;;6338013;27;20500;-81
2022/09/25 01:14:22;;;;;;;3.72;3.47;;;;;;;;;;6357022;27;20011;-81
2022/09/25 01:17:41;;;;;;;3.00;2.80;;;;;;;;;;6340484;27;20068;-81
2022/09/25 01:21:00;;;;;;;0.63;0.63;;;;;;;;;;6332742;27;20018;-81
2022/09/25 01:24:14;;;;;;;2.65;2.45;;;;;;;;;;6335363;27;20080;-81
2022/09/25 01:27:17;;;;;;;2.47;2.30;;;;;;;;;;6348219;27;20016;-81
2022/09/25 01:30:19;;;;;;;0.30;0.30;;;;;;;;;;6336934;27;20110;-81
2022/09/25 01:33:23;;;;;;;1.40;1.33;;;;;;;;;;6335456;27;20015;-81
2022/09/25 01:36:26;;;;;;;0.40;0.40;;;;;;;;;;6345236;27;20264;-81
2022/09/25 01:39:28;;;;;;;1.27;1.20;;;;;;;;;;6351629;27;20394;-81
2022/09/25 01:42:31;;;;;;;3.85;3.08;;;;;;;;;;6365810;27;20023;-82
2022/09/25 01:45:34;;;;;;;0.88;0.88;;;;;;;;;;6345454;27;20332;-81
2022/09/25 01:48:35;;;;;;;6.57;3.88;;;;;;;;;;6343257;27;20389;-81
2022/09/25 01:51:40;;;;;;;8.23;2.57;;;;;;;;;;6331634;27;20104;-82
2022/09/25 01:54:46;;;;;;;0.20;0.20;;;;;;;;;;6341602;28;20015;-81
2022/09/25 01:57:53;;;;;;;0.70;0.70;;;;;;;;;;6333491;27;20008;-81
2022/09/25 02:00:58;;;;;;;0.47;0.47;;;;;;;;;;6357017;27;20103;-81
2022/09/25 02:04:03;;;;;;;0.32;0.32;;;;;;;;;;6355195;27;20051;-81
2022/09/25 02:07:06;;;;;;;1.05;1.05;;;;;;;;;;6353280;27;20106;-81
2022/09/25 02:10:08;;;;;;;4.35;3.95;;;;;;;;;;6361879;28;20023;-81
2022/09/25 02:13:12;;;;;;;2.38;1.98;;;;;;;;;;6341874;28;20081;-81
2022/09/25 02:16:16;;;;;;;2.13;2.03;;;;;;;;;;6335733;28;20057;-81
2022/09/25 02:22:35;;;;;;;1.58;1.58;;;;;;;;;;6358071;28;20401;-81
2022/09/25 02:25:38;;;;;;;2.33;1.85;;;;;;;;;;6349765;28;20071;-81
2022/09/25 02:28:39;;;;;;;4.95;3.00;;;;;;;;;;6367208;28;20268;-81
2022/09/25 02:31:52;;;;;;;1.95;1.85;;;;;;;;;;6334620;28;20028;-80
2022/09/25 02:34:53;;;;;;;6.10;2.30;;;;;;;;;;6345040;28;20023;-80
2022/09/25 02:37:55;;;;;;;2.90;2.45;;;;;;;;;;6361630;28;20011;-80
2022/09/25 02:40:59;;;;;;;0.52;0.52;;;;;;;;;;6349364;28;20507;-81
2022/09/25 02:44:08;;;;;;;0.68;0.68;;;;;;;;;;6343483;28;20110;-81
2022/09/25 02:47:21;;;;;;;1.58;1.48;;;;;;;;;;6370132;28;20117;-81
2022/09/25 02:50:26;;;;;;;1.77;1.67;;;;;;;;;;6340599;28;20059;-80
2022/09/25 02:53:31;;;;;;;2.13;2.03;;;;;;;;;;6351171;28;20413;-80
2022/09/25 02:56:39;;;;;;;2.25;1.88;;;;;;;;;;6344085;28;20027;-80
2022/09/25 02:59:42;;;;;;;4.45;1.88;;;;;;;;;;6329929;28;20023;-81
2022/09/25 03:02:44;;;;;;;6.93;3.00;;;;;;;;;;6343066;28;20428;-81
2022/09/25 03:05:45;;;;;;;1.95;1.83;;;;;;;;;;6337869;27;20566;-81
2022/09/25 03:08:50;;;;;;;2.72;2.28;;;;;;;;;;6349350;27;20019;-81
2022/09/25 03:11:51;;;;;;;2.97;2.75;;;;;;;;;;6334650;28;20023;-81
2022/09/25 03:14:51;;;;;;;0.55;0.55;;;;;;;;;;6357427;27;20467;-81
2022/09/25 03:17:52;;;;;;;0.77;0.77;;;;;;;;;;6348005;27;20425;-81
2022/09/25 03:20:52;;;;;;;0.80;0.80;;;;;;;;;;6361994;27;20027;-82
2022/09/25 03:23:55;;;;;;;1.07;1.07;;;;;;;;;;6356360;27;20367;-81
2022/09/25 03:26:55;;;;;;;0.45;0.45;;;;;;;;;;6357399;27;20673;-81
2022/09/25 03:29:56;;;;;;;0.30;0.30;;;;;;;;;;6356088;27;20026;-80
2022/09/25 03:32:56;;;;;;;3.42;3.13;;;;;;;;;;6331304;27;20270;-81
2022/09/25 03:36:04;;;;;;;2.60;2.42;;;;;;;;;;6351522;27;20792;-81
2022/09/25 03:39:05;;;;;;;1.77;1.55;;;;;;;;;;6338538;27;20019;-81
2022/09/25 03:42:05;;;;;;;2.25;2.15;;;;;;;;;;6340150;28;20041;-81
2022/09/25 03:45:05;;;;;;;3.60;3.07;;;;;;;;;;6356646;27;20031;-81
2022/09/25 03:48:05;;;;;;;2.23;2.07;;;;;;;;;;6363352;27;20012;-81
2022/09/25 03:51:06;;;;;;;3.65;3.38;;;;;;;;;;6359283;27;20031;-81
2022/09/25 03:54:06;;;;;;;1.50;1.48;;;;;;;;;;6372824;27;20315;-81
2022/09/25 03:57:07;;;;;;;1.80;1.70;;;;;;;;;;6335892;27;20011;-81
2022/09/25 04:00:07;;;;;;;3.70;3.50;;;;;;;;;;6347604;27;20173;-81
2022/09/25 04:03:07;;;;;;;1.70;1.60;;;;;;;;;;6352728;27;20027;-81
2022/09/25 04:06:07;;;;;;;1.55;1.50;;;;;;;;;;6336707;27;20015;-81
2022/09/25 04:09:08;;;;;;;6.80;4.45;;;;;;;;;;6359883;27;20007;-81
2022/09/25 04:12:08;;;;;;;1.90;1.43;;;;;;;;;;6346461;27;20381;-80
2022/09/25 04:15:08;;;;;;;2.63;1.77;;;;;;;;;;6353730;27;20479;-82
2022/09/25 04:18:09;;;;;;;1.33;1.33;;;;;;;;;;6361724;27;20394;-81
2022/09/25 04:21:10;;;;;;;4.37;2.73;;;;;;;;;;6345871;27;20037;-81
2022/09/25 04:27:29;;;;;;;1.80;1.70;;;;;;;;;;6368224;27;20039;-81
2022/09/25 04:30:30;;;;;;;2.08;1.98;;;;;;;;;;6350676;27;20062;-80
2022/09/25 04:33:46;;;;;;;1.40;1.20;;;;;;;;;;6331334;27;20045;-80
2022/09/25 04:36:46;;;;;;;0.50;0.50;;;;;;;;;;6349691;27;20011;-81
2022/09/25 04:39:46;;;;;;;0.70;0.70;;;;;;;;;;6338770;28;20010;-81
2022/09/25 04:42:46;;;;;;;1.73;1.63;;;;;;;;;;6366843;27;20821;-80
2022/09/25 04:45:47;;;;;;;1.38;1.30;;;;;;;;;;6345204;27;20115;-80
2022/09/25 04:48:47;;;;;;;8.02;2.10;;;;;;;;;;6355179;27;20034;-80
2022/09/25 04:51:47;;;;;;;2.73;2.53;;;;;;;;;;6356797;27;20052;-81
2022/09/25 04:54:47;;;;;;;0.75;0.75;;;;;;;;;;6366429;27;20034;-80
2022/09/25 04:57:51;;;;;;;1.37;1.27;;;;;;;;;;6346947;27;20027;-80
2022/09/25 05:00:52;;;;;;;1.60;1.35;;;;;;;;;;6358816;27;20016;-80
2022/09/25 05:03:52;;;;;;;1.95;1.85;;;;;;;;;;6343798;27;20515;-80
2022/09/25 05:06:53;;;;;;;0.47;0.47;;;;;;;;;;6353333;27;20073;-80
2022/09/25 05:09:53;;;;;;;1.67;1.57;;;;;;;;;;6363084;27;20015;-80
2022/09/25 05:12:55;;;;;;;0.67;0.60;;;;;;;;;;6356972;27;20050;-80
2022/09/25 05:15:55;;;;;;;0.30;0.30;;;;;;;;;;6337336;27;20019;-81
2022/09/25 05:18:55;;;;;;;1.13;1.10;;;;;;;;;;6365438;27;20583;-80
2022/09/25 05:21:55;;;;;;;0.90;0.83;;;;;;;;;;6366884;27;20011;-80
2022/09/25 05:24:56;;;;;;;1.90;1.80;;;;;;;;;;6340106;27;20011;-80
2022/09/25 05:27:57;;;;;;;0.30;0.30;;;;;;;;;;6346820;27;20023;-81
2022/09/25 05:31:02;;;;;;;0.73;0.67;;;;;;;;;;6337169;27;20375;-81
2022/09/25 05:34:02;;;;;;;1.02;1.02;;;;;;;;;;6362328;27;20281;-81
2022/09/25 05:37:02;;;;;;;0.93;0.93;;;;;;;;;;6353281;27;20525;-81
2022/09/25 05:40:02;;;;;;;0.23;0.23;;;;;;;;;;6368689;27;20475;-81
2022/09/25 05:43:04;;;;;;;0.30;0.30;;;;;;;;;;6350459;27;20058;-81
2022/09/25 05:46:04;;;;;;;0.20;0.20;;;;;;;;;;6345635;27;20096;-81
2022/09/25 05:49:04;;;;;;;1.60;1.47;;;;;;;;;;6345072;27;20039;-80
2022/09/25 05:52:04;;;;;;;0.67;0.67;;;;;;;;;;6349231;27;20036;-80
2022/09/25 05:55:06;;;;;;;2.97;2.75;;;;;;;;;;6343759;27;20504;-81
2022/09/25 05:58:07;;;;;;;3.75;1.70;;;;;;;;;;6336240;27;20015;-80
2022/09/25 06:01:07;;;;;;;17.07;11.60;;;;;;;;;;6368906;27;20018;-80
2022/09/25 06:04:07;;;;;;;20.93;13.93;;;;;;;;;;6346035;27;20007;-80
2022/09/25 06:07:10;;;;;;;5.07;4.63;;;;;;;;;;6349431;27;20072;-80
2022/09/25 06:10:11;;;;;;;3.65;3.45;;;;;;;;;;6344981;27;20027;-80
2022/09/25 06:13:11;;;;;;;3.50;3.30;;;;;;;;;;6337100;28;20379;-80
2022/09/25 06:16:13;;;;;;;3.27;2.97;;;;;;;;;;6349681;28;20475;-80
2022/09/25 06:19:13;;;;;;;4.70;4.40;;;;;;;;;;6344266;28;20016;-81
2022/09/25 06:22:13;;;;;;;1.83;1.73;;;;;;;;;;6364873;28;20063;-81
2022/09/25 06:25:14;;;;;;;2.83;2.23;;;;;;;;;;6341704;28;20416;-81
2022/09/25 06:28:14;;;;;;;9.47;3.47;;;;;;;;;;6341993;28;20019;-81
2022/09/25 06:31:15;;;;;;;3.90;3.15;;;;;;;;;;6341884;28;20023;-80
2022/09/25 06:34:15;;;;;;;1.77;1.67;;;;;;;;;;6349541;28;20039;-78
2022/09/25 06:37:15;;;;;;;8.43;4.15;;;;;;;;;;6359380;28;20495;-78
2022/09/25 06:40:15;;;;;;;10.63;3.08;;;;;;;;;;6360951;28;20081;-78
2022/09/25 06:43:15;;;;;;;1.47;1.47;;;;;;;;;;6345276;27;20046;-77
2022/09/25 06:46:17;;;;;;;1.20;1.17;;;;;;;;;;6346523;27;20080;-78
2022/09/25 06:49:17;;;;;;;5.57;4.93;;;;;;;;;;6351123;27;20098;-78
2022/09/25 06:52:17;;;;;;;4.03;3.63;;;;;;;;;;6350719;27;20046;-79
2022/09/25 06:55:17;;;;;;;12.03;4.13;;;;;;;;;;6349602;27;20132;-78
2022/09/25 06:58:19;;;;;;;5.07;4.67;;;;;;;;;;6346817;27;20019;-78
2022/09/25 07:01:19;;;;;;;5.75;5.20;;;;;;;;;;6362000;27;20016;-78
2022/09/25 07:04:20;;;;;;;5.20;3.80;;;;;;;;;;6363798;27;20027;-77
2022/09/25 07:07:23;;;;;;;4.13;3.72;;;;;;;;;;6368958;27;20076;-77
2022/09/25 07:10:23;;;;;;;9.10;7.32;;;;;;;;;;6344655;27;20356;-77
2022/09/25 07:13:28;;;;;;;3.20;2.97;;;;;;;;;;6342961;27;20023;-77
2022/09/25 07:16:29;;;;;;;3.75;3.55;;;;;;;;;;6326107;27;20042;-77
2022/09/25 07:19:29;;;;;;;3.57;2.23;;;;;;;;;;6339541;27;20016;-78
2022/09/25 07:22:29;;;;;;;3.70;3.50;;;;;;;;;;6348883;27;20019;-78
2022/09/25 07:25:32;;;;;;;2.60;2.47;;;;;;;;;;6350805;27;20106;-78
2022/09/25 07:28:33;;;;;;;5.93;5.15;;;;;;;;;;6347164;27;20030;-77
2022/09/25 07:31:34;;;;;;;2.80;2.60;;;;;;;;;;6341581;27;20023;-77
2022/09/25 07:34:36;;;;;;;2.25;2.05;;;;;;;;;;6355638;27;20052;-77
2022/09/25 07:37:36;;;;;;;4.03;3.75;;;;;;;;;;6370119;27;20039;-78
2022/09/25 07:40:36;;;;;;;1.70;1.60;;;;;;;;;;6346859;27;20008;-77
2022/09/25 07:43:37;;;;;;;4.87;4.47;;;;;;;;;;6362201;27;20019;-76
2022/09/25 07:46:42;;;;;;;5.10;3.40;;;;;;;;;;6368670;27;20015;-77
2022/09/25 07:49:42;;;;;;;8.48;2.92;;;;;;;;;;6351572;27;20600;-76
2022/09/25 07:52:42;;;;;;;4.30;4.00;;;;;;;;;;6372024;27;20027;-76
2022/09/25 07:55:43;;;;;;;2.27;2.17;;;;;;;;;;6375066;27;20469;-77
2022/09/25 07:58:44;;;;;;;1.00;1.00;;;;;;;;;;6369099;27;20424;-79
2022/09/25 08:01:45;;;;;;;4.47;4.07;;;;;;;;;;6373763;27;20030;-76
2022/09/25 08:04:45;;;;;;;1.60;1.50;;;;;;;;;;6353558;27;20019;-76
2022/09/25 08:07:45;;;;;;;2.42;2.28;;;;;;;;;;6349560;27;20034;-77
2022/09/25 08:10:45;;;;;;;4.85;3.20;;;;;;;;;;6341302;27;20557;-77
2022/09/25 08:13:45;;;;;;;3.70;2.25;;;;;;;;;;6352469;27;20091;-77
2022/09/25 08:16:46;;;;;;;5.40;4.93;;;;;;;;;;6348186;27;20051;-76
2022/09/25 08:19:46;;;;;;;19.20;13.20;;;;;;;;;;6365577;27;20106;-76
2022/09/25 08:22:46;;;;;;;21.50;10.50;;;;;;;;;;6370567;27;20098;-76
2022/09/25 08:25:48;;;;;;;9.43;8.37;;;;;;;;;;6366727;27;20015;-77
2022/09/25 08:28:49;;;;;;;3.47;3.15;;;;;;;;;;6368343;27;20111;-77
2022/09/25 08:31:50;;;;;;;5.78;5.18;;;;;;;;;;6350284;27;20481;-77
2022/09/25 08:34:50;;;;;;;1.93;1.83;;;;;;;;;;6340651;27;20072;-77
2022/09/25 08:37:50;;;;;;;2.63;2.43;;;;;;;;;;6363059;27;20015;-76
2022/09/25 08:40:55;;;;;;;4.20;2.17;;;;;;;;;;6370720;27;20024;-76
2022/09/25 08:44:21;;;;;;;8.48;3.00;;;;;;;;;;6335080;28;20091;-76
2022/09/25 08:50:42;;;;;;;1.83;1.45;;;;;;;;;;6347126;27;20043;-76
2022/09/25 08:53:44;;;;;;;2.57;2.37;;;;;;;;;;6350514;27;20378;-76
2022/09/25 08:56:47;;;;;;;2.72;2.47;;;;;;;;;;6347730;27;20019;-76
2022/09/25 08:59:50;;;;;;;2.35;2.25;;;;;;;;;;6363444;27;20161;-76
2022/09/25 09:02:54;;;;;;;2.17;1.98;;;;;;;;;;6346619;27;20026;-77
2022/09/25 09:06:05;;;;;;;2.53;2.35;;;;;;;;;;6360234;27;20028;-77
2022/09/25 09:09:29;;;;;;;3.03;2.78;;;;;;;;;;6351430;27;20047;-78
2022/09/25 09:12:35;;;;;;;2.15;1.98;;;;;;;;;;6357972;27;20023;-77
2022/09/25 09:15:38;;;;;;;8.80;2.13;;;;;;;;;;6344973;27;20059;-76
2022/09/25 09:18:39;;;;;;;1.52;1.42;;;;;;;;;;6370947;27;20485;-77
2022/09/25 09:21:49;;;;;;;2.70;1.98;;;;;;;;;;6349272;27;20035;-77
2022/09/25 09:24:53;;;;;;;4.75;4.35;;;;;;;;;;6351354;27;20015;-77
2022/09/25 09:28:05;;;;;;;3.40;3.10;;;;;;;;;;6362156;27;20030;-77
2022/09/25 09:31:15;;;;;;;6.93;5.20;;;;;;;;;;6342484;27;20367;-78
2022/09/25 09:34:35;;;;;;;5.93;4.35;;;;;;;;;;6361125;27;20027;-77
2022/09/25 09:37:35;;;;;;;1.98;1.88;;;;;;;;;;6347737;27;20060;-77
2022/09/25 09:40:51;;;;;;;2.13;1.90;;;;;;;;;;6347853;27;20015;-78
2022/09/25 09:44:18;;;;;;;0.65;0.65;;;;;;;;;;6363189;27;20015;-78
2022/09/25 09:47:21;;;;;;;1.58;1.45;;;;;;;;;;6346376;27;20020;-78
2022/09/25 09:50:35;;;;;;;11.93;4.13;;;;;;;;;;6366439;27;20042;-78
2022/09/25 09:53:35;;;;;;;5.13;3.17;;;;;;;;;;6352181;27;20024;-77
2022/09/25 09:56:37;;;;;;;4.37;4.07;;;;;;;;;;6332845;28;20064;-77
2022/09/25 09:59:45;;;;;;;3.13;2.33;;;;;;;;;;6344534;27;20050;-78
2022/09/25 10:02:48;;;;;;;3.22;2.67;;;;;;;;;;6336360;27;20030;-77
2022/09/25 10:05:52;;;;;;;3.08;2.80;;;;;;;;;;6356745;27;20383;-77
2022/09/25 10:08:52;;;;;;;1.90;1.27;;;;;;;;;;6361463;27;20024;-78
2022/09/25 10:12:00;;;;;;;8.80;3.67;;;;;;;;;;6356364;27;20034;-78
2022/09/25 10:15:03;;;;;;;3.08;2.83;;;;;;;;;;6349982;27;20024;-78
2022/09/25 10:18:03;;;;;;;1.92;1.75;;;;;;;;;;6359860;28;20030;-78
2022/09/25 10:21:09;;;;;;;2.17;2.07;;;;;;;;;;6363677;28;20020;-78
2022/09/25 10:24:09;;;;;;;2.10;1.58;;;;;;;;;;6337117;28;20032;-78
2022/09/25 10:27:19;;;;;;;2.53;2.33;;;;;;;;;;6359628;28;20023;-78
2022/09/25 10:30:20;;;;;;;1.80;1.70;;;;;;;;;;6347662;28;20158;-78
2022/09/25 10:33:22;;;;;;;2.58;2.38;;;;;;;;;;6367157;28;20011;-78
2022/09/25 10:36:37;;;;;;;1.13;1.08;;;;;;;;;;6339080;28;20347;-78
2022/09/25 10:39:40;;;;;;;4.05;2.78;;;;;;;;;;6337838;28;20015;-78
2022/09/25 10:42:41;;;;;;;2.60;2.33;;;;;;;;;;6343060;28;20152;-79
2022/09/25 10:45:41;;;;;;;13.80;3.70;;;;;;;;;;6346231;28;20052;-78
2022/09/25 10:52:04;;;;;;;3.92;3.55;;;;;;;;;;6361721;28;20130;-78
2022/09/25 10:55:13;;;;;;;2.85;2.13;;;;;;;;;;6345758;28;20115;-78
2022/09/25 10:58:18;;;;;;;3.38;2.92;;;;;;;;;;6338027;28;20030;-78
2022/09/25 11:01:19;;;;;;;1.08;1.08;;;;;;;;;;6362235;28;20019;-78
2022/09/25 11:04:25;;;;;;;4.03;2.53;;;;;;;;;;6347835;28;20378;-79
2022/09/25 11:07:26;;;;;;;4.13;3.72;;;;;;;;;;6343138;28;20023;-78
2022/09/25 11:10:26;;;;;;;;;;;;;;;;;;6345815;28;20027;-79
2022/09/25 11:13:46;;;;;;;2.70;2.45;;;;;;;;;;6348397;28;19920;-79
2022/09/25 11:16:48;;;;;;;3.10;2.85;;;;;;;;;;6345596;28;20196;-79
2022/09/25 11:20:08;;;;;;;2.75;2.13;;;;;;;;;;6359978;28;20163;-79
2022/09/25 11:23:12;;;;;;;1.88;1.75;;;;;;;;;;6364609;28;20020;-80
2022/09/25 11:26:21;;;;;;;1.80;1.70;;;;;;;;;;6346524;28;20493;-80
2022/09/25 11:29:31;;;;;;;0.60;0.60;;;;;;;;;;6348108;27;20395;-79
2022/09/25 11:32:36;;;;;;;3.13;2.10;;;;;;;;;;6346620;27;20444;-80
2022/09/25 11:35:53;;;;;;;14.10;5.28;;;;;;;;;;6367156;27;20436;-79
2022/09/25 11:42:17;;;;;;;4.05;3.47;;;;;;;;;;6369747;27;20026;-80
2022/09/25 11:45:23;;;;;;;1.58;1.48;;;;;;;;;;6350294;27;20412;-80
2022/09/25 11:48:31;;;;;;;6.35;3.60;;;;;;;;;;6353638;27;20622;-79
2022/09/25 11:51:34;;;;;;;1.65;1.55;;;;;;;;;;6351473;27;20076;-79
2022/09/25 11:54:42;;;;;;;4.55;3.42;;;;;;;;;;6355120;27;20023;-79
2022/09/25 11:57:55;;;;;;;2.60;1.67;;;;;;;;;;6347593;27;20029;-80
2022/09/25 12:01:02;;;;;;;2.40;2.20;;;;;;;;;;6352996;27;20482;-79
2022/09/25 12:04:02;;;;;;;2.45;1.25;;;;;;;;;;6362442;27;20016;-80
2022/09/25 12:07:21;;;;;;;5.87;2.63;;;;;;;;;;6363509;27;20019;-79
2022/09/25 12:10:26;;;;;;;0.65;0.65;;;;;;;;;;6352760;27;20044;-80
2022/09/25 12:13:32;;;;;;;5.18;2.38;;;;;;;;;;6352702;27;20473;-80
2022/09/25 12:16:33;;;;;;;2.70;2.50;;;;;;;;;;6344953;27;20022;-79
2022/09/25 12:19:41;;;;;;;4.55;1.30;;;;;;;;;;6351409;27;20027;-80
2022/09/25 12:22:59;;;;;;;0.98;0.93;;;;;;;;;;6349280;27;20215;-80
2022/09/25 12:26:18;;;;;;;1.50;1.48;;;;;;;;;;6360213;27;20027;-80
2022/09/25 12:29:27;;;;;;;1.95;1.85;;;;;;;;;;6341181;28;20047;-80
2022/09/25 12:32:42;;;;;;;1.98;1.65;;;;;;;;;;6361977;27;20027;-79
2022/09/25 12:36:02;;;;;;;7.28;3.33;;;;;;;;;;6338282;27;20019;-79
2022/09/25 12:39:24;;;;;;;0.93;0.90;;;;;;;;;;6348652;27;20331;-79
2022/09/25 12:42:33;;;;;;;0.50;0.50;;;;;;;;;;6338541;27;20019;-79
2022/09/25 12:45:37;;;;;;;1.73;1.23;;;;;;;;;;6338044;27;20518;-79
2022/09/25 12:48:48;;;;;;;1.58;1.48;;;;;;;;;;6333450;27;20016;-79
2022/09/25 12:51:50;;;;;;;2.80;1.45;;;;;;;;;;6359399;27;20537;-80
2022/09/25 12:54:50;;;;;;;;;;;;;;;;;;6343608;27;20019;-80
2022/09/25 12:58:06;;;;;;;1.45;1.15;;;;;;;;;;6343251;27;19986;-80
2022/09/25 13:01:29;;;;;;;1.80;1.67;;;;;;;;;;6358710;27;20027;-80
2022/09/25 13:04:39;;;;;;;2.05;1.48;;;;;;;;;;6322072;27;20059;-79
2022/09/25 13:07:58;;;;;;;2.53;2.33;;;;;;;;;;6346944;27;20019;-80
2022/09/25 13:11:06;;;;;;;2.40;1.95;;;;;;;;;;6351079;27;20509;-80
2022/09/25 13:14:10;;;;;;;0.90;0.90;;;;;;;;;;6355980;27;20015;-80
2022/09/25 13:17:11;;;;;;;2.75;1.92;;;;;;;;;;6359450;27;20022;-80
2022/09/25 13:20:30;;;;;;;2.47;1.90;;;;;;;;;;6350326;27;20012;-79
2022/09/25 13:23:33;;;;;;;3.05;2.13;;;;;;;;;;6353872;27;20022;-79
2022/09/25 13:26:42;;;;;;;1.05;1.05;;;;;;;;;;6344843;27;20427;-79
2022/09/25 13:29:42;;;;;;;1.70;1.40;;;;;;;;;;6346600;27;20016;-79
2022/09/25 13:32:46;;;;;;;0.97;0.97;;;;;;;;;;6349456;27;20019;-79
2022/09/25 13:35:46;;;;;;;1.58;1.48;;;;;;;;;;6364045;27;20015;-79
2022/09/25 13:42:20;;;;;;;2.30;1.13;;;;;;;;;;6356499;27;20110;-82
2022/09/25 13:45:20;;;;;;;5.75;1.55;;;;;;;;;;6363838;27;20015;-82
2022/09/25 13:48:29;;;;;;;1.83;1.73;;;;;;;;;;6368542;27;20021;-82
2022/09/25 13:51:34;;;;;;;6.82;3.08;;;;;;;;;;6356758;27;20100;-82
2022/09/25 13:54:34;;;;;;;1.15;0.85;;;;;;;;;;6343153;27;20076;-83
2022/09/25 13:57:57;;;;;;;2.33;2.23;;;;;;;;;;6350500;27;20019;-82
2022/09/25 14:00:57;;;;;;;0.47;0.47;;;;;;;;;;6356969;27;20025;-83
2022/09/25 14:03:58;;;;;;;3.30;3.00;;;;;;;;;;6345896;27;20015;-83
2022/09/25 14:07:10;;;;;;;0.60;0.60;;;;;;;;;;6354236;27;20025;-83
2022/09/25 14:10:11;;;;;;;4.95;2.47;;;;;;;;;;6368573;27;20015;-83
2022/09/25 14:13:13;;;;;;;1.47;1.47;;;;;;;;;;6360628;27;20016;-83
2022/09/25 14:16:36;;;;;;;5.20;2.80;;;;;;;;;;6344469;28;20043;-83
2022/09/25 14:19:40;;;;;;;1.58;1.52;;;;;;;;;;6347783;28;20110;-82
2022/09/25 14:22:44;;;;;;;1.65;1.55;;;;;;;;;;6333041;28;20096;-82
2022/09/25 14:25:46;;;;;;;1.20;1.15;;;;;;;;;;6325101;28;20432;-83
2022/09/25 14:28:47;;;;;;;2.67;2.15;;;;;;;;;;6367461;28;20019;-82
2022/09/25 14:31:54;;;;;;;2.17;1.98;;;;;;;;;;6355625;28;20026;-83
2022/09/25 14:35:08;;;;;;;1.67;1.58;;;;;;;;;;6343942;28;20445;-82
2022/09/25 14:38:31;;;;;;;2.22;2.05;;;;;;;;;;6348119;28;20011;-83
2022/09/25 14:41:48;;;;;;;0.98;0.98;;;;;;;;;;6354417;28;20026;-82
2022/09/25 14:45:09;;;;;;;2.13;1.60;;;;;;;;;;6368761;28;20027;-84
2022/09/25 14:48:12;;;;;;;2.63;0.75;;;;;;;;;;6355312;28;20404;-83
2022/09/25 14:51:18;;;;;;;1.90;1.77;;;;;;;;;;6351173;28;20042;-83
2022/09/25 14:54:20;;;;;;;2.38;2.20;;;;;;;;;;6349844;28;20459;-83
2022/09/25 14:57:26;;;;;;;2.08;1.80;;;;;;;;;;6344747;28;20545;-83
2022/09/25 15:00:28;;;;;;;7.47;1.63;;;;;;;;;;6357592;28;20486;-83
2022/09/25 15:03:30;;;;;;;1.50;1.40;;;;;;;;;;6359281;27;20026;-84
2022/09/25 15:06:31;;;;;;;2.33;1.58;;;;;;;;;;6370721;27;20041;-84
2022/09/25 15:09:46;;;;;;;2.85;0.95;;;;;;;;;;6338221;27;20012;-84
2022/09/25 15:12:46;;;;;;;1.10;1.00;;;;;;;;;;6353696;27;20415;-84
2022/09/25 15:19:19;;;;;;;0.32;0.32;;;;;;;;;;6362104;27;20486;-84
2022/09/25 15:22:22;;;;;;;1.63;1.50;;;;;;;;;;6359361;27;20023;-84
2022/09/25 15:25:25;;;;;;;0.63;0.63;;;;;;;;;;6336620;27;20020;-84
2022/09/25 15:28:26;;;;;;;1.15;1.05;;;;;;;;;;6337733;27;20588;-84
2022/09/25 15:31:33;;;;;;;2.65;0.77;;;;;;;;;;6361616;27;20101;-84
2022/09/25 15:34:34;;;;;;;7.22;3.25;;;;;;;;;;6342618;28;20016;-83
2022/09/25 15:37:34;;;;;;;4.30;1.67;;;;;;;;;;6354403;27;20075;-84
2022/09/25 15:40:34;;;;;;;2.00;1.90;;;;;;;;;;6350538;28;20008;-85
2022/09/25 15:43:34;;;;;;;0.90;0.90;;;;;;;;;;6351519;27;20011;-84
2022/09/25 15:46:39;;;;;;;3.57;3.30;;;;;;;;;;6350121;27;20037;-84
2022/09/25 15:49:41;;;;;;;3.25;2.97;;;;;;;;;;6349920;27;20019;-83
2022/09/25 15:52:42;;;;;;;1.55;1.48;;;;;;;;;;6356708;27;20110;-83
2022/09/25 15:55:42;;;;;;;1.13;1.03;;;;;;;;;;6342125;27;20012;-83
2022/09/25 15:58:48;;;;;;;1.70;1.60;;;;;;;;;;6356493;27;20027;-83
2022/09/25 16:05:08;;;;;;;2.00;1.70;;;;;;;;;;6370244;27;20003;-83
2022/09/25 16:08:09;;;;;;;;;;;;;;;;;;6332081;27;20024;-84
2022/09/25 16:11:23;;;;;;;1.27;1.27;;;;;;;;;;6370138;27;19910;-84
2022/09/25 16:14:30;;;;;;;0.95;0.95;;;;;;;;;;6341306;27;20016;-84
2022/09/25 16:17:32;;;;;;;1.75;1.65;;;;;;;;;;6368464;27;20027;-85
2022/09/25 16:20:36;;;;;;;3.42;2.60;;;;;;;;;;6350090;27;20008;-84
2022/09/25 16:23:38;;;;;;;0.77;0.77;;;;;;;;;;6339261;28;20480;-84
2022/09/25 16:26:40;;;;;;;1.17;1.17;;;;;;;;;;6331915;27;20030;-85
2022/09/25 16:29:43;;;;;;;1.65;1.10;;;;;;;;;;6346987;27;20094;-85
2022/09/25 16:32:44;;;;;;;2.25;1.10;;;;;;;;;;6343732;27;20003;-84
2022/09/25 16:35:46;;;;;;;1.90;1.27;;;;;;;;;;6346665;27;20068;-84
2022/09/25 16:39:16;;;;;;;2.78;2.58;;;;;;;;;;6356605;27;20015;-82
2022/09/25 16:42:25;;;;;;;3.75;3.45;;;;;;;;;;6357691;27;20023;-83
2022/09/25 16:45:28;;;;;;;1.83;1.75;;;;;;;;;;6344229;27;20019;-83
2022/09/25 16:48:30;;;;;;;2.97;2.78;;;;;;;;;;6364113;27;20545;-82
2022/09/25 16:51:30;;;;;;;;;;;;;;;;;;6347983;27;20042;-82
2022/09/25 16:54:31;;;;;;;3.53;2.47;;;;;;;;;;6350975;27;20336;-83
2022/09/25 16:57:32;;;;;;;4.73;2.93;;;;;;;;;;6346681;27;20383;-83
2022/09/25 17:00:32;;;;;;;2.40;2.20;;;;;;;;;;6352107;27;20053;-84
2022/09/25 17:03:48;;;;;;;4.20;3.80;;;;;;;;;;6366418;27;20010;-84
2022/09/25 17:06:49;;;;;;;2.03;1.80;;;;;;;;;;6342867;27;20147;-84
2022/09/25 17:09:49;;;;;;;2.00;1.80;;;;;;;;;;6343445;27;20259;-84
2022/09/25 17:12:50;;;;;;;13.03;1.47;;;;;;;;;;6344607;27;20114;-84
2022/09/25 17:15:54;;;;;;;6.65;3.60;;;;;;;;;;6356922;27;20096;-83
2022/09/25 17:18:54;;;;;;;2.63;2.40;;;;;;;;;;6349271;27;20030;-83
2022/09/25 17:21:55;;;;;;;4.00;2.50;;;;;;;;;;6346833;27;20378;-84
2022/09/25 17:24:56;;;;;;;2.00;1.90;;;;;;;;;;6349046;27;20015;-84
2022/09/25 17:27:56;;;;;;;;;;;;;;;;;;6348805;27;20031;-83
2022/09/25 17:30:59;;;;;;;1.67;1.58;;;;;;;;;;6348296;27;19999;-83
2022/09/25 17:33:59;;;;;;;1.33;1.25;;;;;;;;;;6343162;27;20414;-84
2022/09/25 17:36:59;;;;;;;1.40;1.07;;;;;;;;;;6341351;27;20019;-84
2022/09/25 17:39:59;;;;;;;5.30;2.27;;;;;;;;;;6344450;27;20012;-84
2022/09/25 17:43:00;;;;;;;2.33;1.27;;;;;;;;;;6342008;27;20012;-84
2022/09/25 17:46:00;;;;;;;1.60;1.50;;;;;;;;;;6350681;27;20027;-84
2022/09/25 17:49:01;;;;;;;4.47;2.20;;;;;;;;;;6353923;27;20011;-84
2022/09/25 17:52:02;;;;;;;2.73;1.80;;;;;;;;;;6355397;27;20459;-84
2022/09/25 17:55:09;;;;;;;1.23;1.23;;;;;;;;;;6354448;27;20031;-84
2022/09/25 17:58:10;;;;;;;1.30;1.08;;;;;;;;;;6349029;27;20039;-84
2022/09/25 18:01:12;;;;;;;2.33;2.23;;;;;;;;;;6352562;27;20446;-84
2022/09/25 18:04:16;;;;;;;2.53;1.92;;;;;;;;;;6372691;27;20148;-84
2022/09/25 18:07:17;;;;;;;1.45;0.95;;;;;;;;;;6346697;27;20027;-84
2022/09/25 18:10:17;;;;;;;2.67;2.47;;;;;;;;;;6352941;27;20007;-84
2022/09/25 18:13:21;;;;;;;2.90;2.67;;;;;;;;;;6349181;27;20023;-84
2022/09/25 18:16:26;;;;;;;3.55;2.70;;;;;;;;;;6367538;27;20042;-84
2022/09/25 18:22:45;;;;;;;1.55;1.55;;;;;;;;;;6368069;28;20035;-84
2022/09/25 18:25:46;;;;;;;2.13;2.00;;;;;;;;;;6364519;28;20052;-84
2022/09/25 18:28:46;;;;;;;4.80;4.40;;;;;;;;;;6361152;28;20046;-84
2022/09/25 18:31:47;;;;;;;7.10;3.23;;;;;;;;;;6347900;28;20037;-84
2022/09/25 18:34:47;;;;;;;3.90;3.30;;;;;;;;;;6333480;28;20043;-84
2022/09/25 18:37:48;;;;;;;2.13;2.03;;;;;;;;;;6352314;27;20028;-84
2022/09/25 18:40:48;;;;;;;7.60;5.83;;;;;;;;;;6337367;27;20015;-84
2022/09/25 18:43:48;;;;;;;5.43;3.50;;;;;;;;;;6361459;27;20038;-83
2022/09/25 18:46:49;;;;;;;5.10;3.83;;;;;;;;;;6371999;27;20031;-84
2022/09/25 18:49:50;;;;;;;4.68;2.90;;;;;;;;;;6350167;27;20046;-84
2022/09/25 18:52:51;;;;;;;10.77;2.60;;;;;;;;;;6354017;27;20490;-85